sensor_id;sensor_type;location;lat;lon;timestamp;P1;durP1;ratioP1;P2;durP2;ratioP2
73100;SDS011;61288;53.446;-2.266;2023-04-25T00:01:23;12.40;;;2.67;;
73100;SDS011;61288;53.446;-2.266;2023-04-25T00:03:49;8.02;;;2.53;;
73100;SDS011;61288;53.446;-2.266;2023-04-25T00:06:17;13.00;;;2.65;;
73100;SDS011;61288;53.446;-2.266;2023-04-25T00:08:44;10.63;;;2.88;;
73100;SDS011;61288;53.446;-2.266;2023-04-25T00:11:09;8.52;;;2.13;;
73100;SDS011;61288;53.446;-2.266;2023-04-25T00:13:35;10.23;;;2.47;;
73100;SDS011;61288;53.446;-2.266;2023-04-25T00:16:02;9.13;;;2.33;;
73100;SDS011;61288;53.446;-2.266;2023-04-25T00:18:29;7.22;;;2.08;;
73100;SDS011;61288;53.446;-2.266;2023-04-25T00:20:54;7.75;;;2.20;;
73100;SDS011;61288;53.446;-2.266;2023-04-25T00:23:21;6.97;;;1.90;;
73100;SDS011;61288;53.446;-2.266;2023-04-25T00:25:47;8.95;;;2.38;;
73100;SDS011;61288;53.446;-2.266;2023-04-25T00:28:14;10.52;;;2.70;;
73100;SDS011;61288;53.446;-2.266;2023-04-25T00:30:40;8.88;;;2.30;;
73100;SDS011;61288;53.446;-2.266;2023-04-25T00:33:06;10.15;;;2.50;;
73100;SDS011;61288;53.446;-2.266;2023-04-25T00:35:33;7.78;;;2.10;;
73100;SDS011;61288;53.446;-2.266;2023-04-25T00:37:59;7.00;;;2.10;;
73100;SDS011;61288;53.446;-2.266;2023-04-25T00:40:25;8.50;;;2.17;;
73100;SDS011;61288;53.446;-2.266;2023-04-25T00:42:51;10.00;;;2.58;;
73100;SDS011;61288;53.446;-2.266;2023-04-25T00:45:18;9.27;;;2.55;;
73100;SDS011;61288;53.446;-2.266;2023-04-25T00:47:44;4.45;;;1.98;;
73100;SDS011;61288;53.446;-2.266;2023-04-25T00:50:10;8.35;;;2.40;;
73100;SDS011;61288;53.446;-2.266;2023-04-25T00:52:40;7.82;;;2.10;;
73100;SDS011;61288;53.446;-2.266;2023-04-25T00:55:09;8.73;;;2.15;;
73100;SDS011;61288;53.446;-2.266;2023-04-25T00:57:35;9.57;;;2.33;;
73100;SDS011;61288;53.446;-2.266;2023-04-25T01:00:02;6.88;;;2.30;;
73100;SDS011;61288;53.446;-2.266;2023-04-25T01:02:30;9.27;;;2.17;;
73100;SDS011;61288;53.446;-2.266;2023-04-25T01:04:57;6.38;;;2.20;;
73100;SDS011;61288;53.446;-2.266;2023-04-25T01:07:23;6.43;;;2.17;;
73100;SDS011;61288;53.446;-2.266;2023-04-25T01:09:51;8.35;;;2.00;;
73100;SDS011;61288;53.446;-2.266;2023-04-25T01:12:17;11.70;;;2.42;;
73100;SDS011;61288;53.446;-2.266;2023-04-25T01:14:43;8.05;;;2.53;;
73100;SDS011;61288;53.446;-2.266;2023-04-25T01:17:09;9.75;;;2.65;;
73100;SDS011;61288;53.446;-2.266;2023-04-25T01:19:36;7.50;;;2.05;;
73100;SDS011;61288;53.446;-2.266;2023-04-25T01:22:02;6.93;;;2.55;;
73100;SDS011;61288;53.446;-2.266;2023-04-25T01:24:29;8.10;;;2.28;;
73100;SDS011;61288;53.446;-2.266;2023-04-25T01:26:57;8.85;;;2.40;;
73100;SDS011;61288;53.446;-2.266;2023-04-25T01:29:24;7.05;;;1.92;;
73100;SDS011;61288;53.446;-2.266;2023-04-25T01:31:51;8.07;;;2.17;;
73100;SDS011;61288;53.446;-2.266;2023-04-25T01:34:17;9.02;;;2.55;;
73100;SDS011;61288;53.446;-2.266;2023-04-25T01:36:43;7.00;;;2.22;;
73100;SDS011;61288;53.446;-2.266;2023-04-25T01:39:09;6.90;;;2.20;;
73100;SDS011;61288;53.446;-2.266;2023-04-25T01:41:34;8.90;;;2.05;;
73100;SDS011;61288;53.446;-2.266;2023-04-25T01:44:01;10.50;;;2.33;;
73100;SDS011;61288;53.446;-2.266;2023-04-25T01:46:27;8.75;;;2.15;;
73100;SDS011;61288;53.446;-2.266;2023-04-25T01:48:53;8.45;;;2.47;;
73100;SDS011;61288;53.446;-2.266;2023-04-25T01:51:19;8.75;;;2.30;;
73100;SDS011;61288;53.446;-2.266;2023-04-25T01:53:45;7.43;;;2.42;;
73100;SDS011;61288;53.446;-2.266;2023-04-25T01:56:11;10.20;;;2.40;;
73100;SDS011;61288;53.446;-2.266;2023-04-25T01:58:36;11.82;;;2.83;;
73100;SDS011;61288;53.446;-2.266;2023-04-25T02:01:03;11.77;;;2.47;;
73100;SDS011;61288;53.446;-2.266;2023-04-25T02:03:29;10.77;;;2.88;;
73100;SDS011;61288;53.446;-2.266;2023-04-25T02:05:56;7.80;;;2.40;;
73100;SDS011;61288;53.446;-2.266;2023-04-25T02:08:22;8.85;;;2.42;;
73100;SDS011;61288;53.446;-2.266;2023-04-25T02:10:48;9.43;;;2.25;;
73100;SDS011;61288;53.446;-2.266;2023-04-25T02:13:13;11.52;;;2.60;;
73100;SDS011;61288;53.446;-2.266;2023-04-25T02:15:39;8.35;;;2.65;;
73100;SDS011;61288;53.446;-2.266;2023-04-25T02:18:06;10.50;;;2.45;;
73100;SDS011;61288;53.446;-2.266;2023-04-25T02:20:32;15.00;;;2.75;;
73100;SDS011;61288;53.446;-2.266;2023-04-25T02:22:57;11.48;;;3.20;;
73100;SDS011;61288;53.446;-2.266;2023-04-25T02:25:23;6.95;;;2.22;;
73100;SDS011;61288;53.446;-2.266;2023-04-25T02:27:48;11.52;;;2.85;;
73100;SDS011;61288;53.446;-2.266;2023-04-25T02:30:14;10.45;;;2.70;;
73100;SDS011;61288;53.446;-2.266;2023-04-25T02:32:40;7.15;;;2.35;;
73100;SDS011;61288;53.446;-2.266;2023-04-25T02:35:06;7.65;;;2.30;;
73100;SDS011;61288;53.446;-2.266;2023-04-25T02:37:32;9.68;;;2.28;;
73100;SDS011;61288;53.446;-2.266;2023-04-25T02:39:59;12.52;;;2.60;;
73100;SDS011;61288;53.446;-2.266;2023-04-25T02:42:24;10.95;;;2.58;;
73100;SDS011;61288;53.446;-2.266;2023-04-25T02:44:49;7.93;;;2.47;;
73100;SDS011;61288;53.446;-2.266;2023-04-25T02:47:15;7.13;;;2.13;;
73100;SDS011;61288;53.446;-2.266;2023-04-25T02:49:40;9.50;;;2.60;;
73100;SDS011;61288;53.446;-2.266;2023-04-25T02:52:06;9.93;;;2.30;;
73100;SDS011;61288;53.446;-2.266;2023-04-25T02:54:32;7.05;;;2.25;;
73100;SDS011;61288;53.446;-2.266;2023-04-25T02:56:57;7.90;;;2.10;;
73100;SDS011;61288;53.446;-2.266;2023-04-25T02:59:23;10.77;;;2.42;;
73100;SDS011;61288;53.446;-2.266;2023-04-25T03:01:48;13.88;;;3.08;;
73100;SDS011;61288;53.446;-2.266;2023-04-25T03:04:14;8.65;;;3.10;;
73100;SDS011;61288;53.446;-2.266;2023-04-25T03:06:40;11.20;;;2.67;;
73100;SDS011;61288;53.446;-2.266;2023-04-25T03:09:06;9.85;;;2.30;;
73100;SDS011;61288;53.446;-2.266;2023-04-25T03:11:32;11.60;;;2.90;;
73100;SDS011;61288;53.446;-2.266;2023-04-25T03:13:57;10.23;;;3.00;;
73100;SDS011;61288;53.446;-2.266;2023-04-25T03:16:23;7.18;;;2.40;;
73100;SDS011;61288;53.446;-2.266;2023-04-25T03:18:49;11.77;;;2.58;;
73100;SDS011;61288;53.446;-2.266;2023-04-25T03:21:15;11.50;;;3.13;;
73100;SDS011;61288;53.446;-2.266;2023-04-25T03:23:41;10.20;;;2.88;;
73100;SDS011;61288;53.446;-2.266;2023-04-25T03:26:07;12.27;;;3.00;;
73100;SDS011;61288;53.446;-2.266;2023-04-25T03:28:33;9.43;;;2.80;;
73100;SDS011;61288;53.446;-2.266;2023-04-25T03:30:58;11.95;;;2.88;;
73100;SDS011;61288;53.446;-2.266;2023-04-25T03:33:24;15.18;;;3.33;;
73100;SDS011;61288;53.446;-2.266;2023-04-25T03:35:51;12.00;;;2.78;;
73100;SDS011;61288;53.446;-2.266;2023-04-25T03:38:16;10.20;;;2.85;;
73100;SDS011;61288;53.446;-2.266;2023-04-25T03:40:42;11.23;;;2.83;;
73100;SDS011;61288;53.446;-2.266;2023-04-25T03:43:08;11.15;;;3.08;;
73100;SDS011;61288;53.446;-2.266;2023-04-25T03:45:33;11.13;;;3.10;;
73100;SDS011;61288;53.446;-2.266;2023-04-25T03:48:00;10.23;;;2.97;;
73100;SDS011;61288;53.446;-2.266;2023-04-25T03:50:25;10.73;;;2.97;;
73100;SDS011;61288;53.446;-2.266;2023-04-25T03:52:51;8.48;;;2.45;;
73100;SDS011;61288;53.446;-2.266;2023-04-25T03:55:17;10.25;;;3.25;;
73100;SDS011;61288;53.446;-2.266;2023-04-25T03:57:42;7.90;;;2.78;;
73100;SDS011;61288;53.446;-2.266;2023-04-25T04:00:09;10.20;;;2.70;;
73100;SDS011;61288;53.446;-2.266;2023-04-25T04:02:35;10.90;;;3.08;;
73100;SDS011;61288;53.446;-2.266;2023-04-25T04:05:02;9.43;;;2.65;;
73100;SDS011;61288;53.446;-2.266;2023-04-25T04:07:28;7.95;;;2.65;;
73100;SDS011;61288;53.446;-2.266;2023-04-25T04:09:54;12.07;;;3.58;;
73100;SDS011;61288;53.446;-2.266;2023-04-25T04:12:20;9.23;;;2.35;;
73100;SDS011;61288;53.446;-2.266;2023-04-25T04:14:45;11.20;;;3.08;;
73100;SDS011;61288;53.446;-2.266;2023-04-25T04:17:11;8.77;;;2.70;;
73100;SDS011;61288;53.446;-2.266;2023-04-25T04:19:36;11.40;;;3.47;;
73100;SDS011;61288;53.446;-2.266;2023-04-25T04:22:02;14.13;;;2.90;;
73100;SDS011;61288;53.446;-2.266;2023-04-25T04:24:27;11.45;;;2.70;;
73100;SDS011;61288;53.446;-2.266;2023-04-25T04:26:53;9.73;;;3.08;;
73100;SDS011;61288;53.446;-2.266;2023-04-25T04:29:18;8.70;;;3.50;;
73100;SDS011;61288;53.446;-2.266;2023-04-25T04:31:56;12.60;;;3.10;;
73100;SDS011;61288;53.446;-2.266;2023-04-25T04:34:22;10.70;;;3.08;;
73100;SDS011;61288;53.446;-2.266;2023-04-25T04:36:49;10.60;;;2.83;;
73100;SDS011;61288;53.446;-2.266;2023-04-25T04:39:15;7.40;;;2.58;;
73100;SDS011;61288;53.446;-2.266;2023-04-25T04:41:41;8.50;;;3.03;;
73100;SDS011;61288;53.446;-2.266;2023-04-25T04:44:08;8.63;;;2.38;;
73100;SDS011;61288;53.446;-2.266;2023-04-25T04:46:34;10.07;;;2.67;;
73100;SDS011;61288;53.446;-2.266;2023-04-25T04:49:09;9.18;;;2.88;;
73100;SDS011;61288;53.446;-2.266;2023-04-25T04:51:36;9.07;;;2.40;;
73100;SDS011;61288;53.446;-2.266;2023-04-25T04:54:03;7.60;;;2.42;;
73100;SDS011;61288;53.446;-2.266;2023-04-25T04:56:29;10.55;;;3.00;;
73100;SDS011;61288;53.446;-2.266;2023-04-25T04:58:56;7.78;;;2.67;;
73100;SDS011;61288;53.446;-2.266;2023-04-25T05:01:23;16.23;;;2.97;;
73100;SDS011;61288;53.446;-2.266;2023-04-25T05:03:49;20.92;;;4.72;;
73100;SDS011;61288;53.446;-2.266;2023-04-25T05:06:15;12.63;;;3.45;;
73100;SDS011;61288;53.446;-2.266;2023-04-25T05:08:42;12.10;;;3.20;;
73100;SDS011;61288;53.446;-2.266;2023-04-25T05:11:07;10.48;;;2.83;;
73100;SDS011;61288;53.446;-2.266;2023-04-25T05:13:32;7.13;;;2.58;;
73100;SDS011;61288;53.446;-2.266;2023-04-25T05:15:58;10.07;;;2.78;;
73100;SDS011;61288;53.446;-2.266;2023-04-25T05:18:23;9.20;;;2.63;;
73100;SDS011;61288;53.446;-2.266;2023-04-25T05:20:58;10.93;;;2.80;;
73100;SDS011;61288;53.446;-2.266;2023-04-25T05:23:23;9.30;;;2.40;;
73100;SDS011;61288;53.446;-2.266;2023-04-25T05:25:49;9.52;;;2.97;;
73100;SDS011;61288;53.446;-2.266;2023-04-25T05:28:14;9.70;;;3.03;;
73100;SDS011;61288;53.446;-2.266;2023-04-25T05:30:40;8.82;;;2.60;;
73100;SDS011;61288;53.446;-2.266;2023-04-25T05:33:06;11.52;;;2.55;;
73100;SDS011;61288;53.446;-2.266;2023-04-25T05:35:32;11.82;;;2.80;;
73100;SDS011;61288;53.446;-2.266;2023-04-25T05:37:57;9.52;;;2.67;;
73100;SDS011;61288;53.446;-2.266;2023-04-25T05:40:23;8.82;;;2.80;;
73100;SDS011;61288;53.446;-2.266;2023-04-25T05:42:48;9.48;;;3.05;;
73100;SDS011;61288;53.446;-2.266;2023-04-25T05:45:14;11.43;;;3.17;;
73100;SDS011;61288;53.446;-2.266;2023-04-25T05:47:40;9.48;;;2.97;;
73100;SDS011;61288;53.446;-2.266;2023-04-25T05:50:05;13.90;;;3.90;;
73100;SDS011;61288;53.446;-2.266;2023-04-25T05:52:32;11.65;;;2.92;;
73100;SDS011;61288;53.446;-2.266;2023-04-25T05:54:57;10.25;;;3.05;;
73100;SDS011;61288;53.446;-2.266;2023-04-25T05:57:23;12.00;;;3.45;;
73100;SDS011;61288;53.446;-2.266;2023-04-25T05:59:50;9.68;;;2.88;;
73100;SDS011;61288;53.446;-2.266;2023-04-25T06:02:17;13.82;;;3.22;;
73100;SDS011;61288;53.446;-2.266;2023-04-25T06:04:43;9.93;;;2.85;;
73100;SDS011;61288;53.446;-2.266;2023-04-25T06:07:08;8.82;;;3.03;;
73100;SDS011;61288;53.446;-2.266;2023-04-25T06:09:34;12.98;;;3.65;;
73100;SDS011;61288;53.446;-2.266;2023-04-25T06:12:00;10.05;;;3.10;;
73100;SDS011;61288;53.446;-2.266;2023-04-25T06:14:27;10.77;;;3.20;;
73100;SDS011;61288;53.446;-2.266;2023-04-25T06:16:53;12.73;;;3.08;;
73100;SDS011;61288;53.446;-2.266;2023-04-25T06:19:19;12.65;;;3.45;;
73100;SDS011;61288;53.446;-2.266;2023-04-25T06:21:44;11.82;;;3.05;;
73100;SDS011;61288;53.446;-2.266;2023-04-25T06:24:10;17.35;;;3.28;;
73100;SDS011;61288;53.446;-2.266;2023-04-25T06:26:37;11.10;;;3.33;;
73100;SDS011;61288;53.446;-2.266;2023-04-25T06:29:02;11.50;;;2.90;;
73100;SDS011;61288;53.446;-2.266;2023-04-25T06:31:28;11.20;;;3.00;;
73100;SDS011;61288;53.446;-2.266;2023-04-25T06:33:58;11.18;;;3.08;;
73100;SDS011;61288;53.446;-2.266;2023-04-25T06:36:23;10.60;;;3.10;;
73100;SDS011;61288;53.446;-2.266;2023-04-25T06:38:51;11.02;;;3.35;;
73100;SDS011;61288;53.446;-2.266;2023-04-25T06:41:17;9.45;;;2.58;;
73100;SDS011;61288;53.446;-2.266;2023-04-25T06:43:43;12.57;;;2.97;;
73100;SDS011;61288;53.446;-2.266;2023-04-25T06:46:09;11.70;;;3.10;;
73100;SDS011;61288;53.446;-2.266;2023-04-25T06:48:35;12.38;;;3.15;;
73100;SDS011;61288;53.446;-2.266;2023-04-25T06:51:01;10.82;;;3.15;;
73100;SDS011;61288;53.446;-2.266;2023-04-25T06:53:26;10.98;;;2.67;;
73100;SDS011;61288;53.446;-2.266;2023-04-25T06:55:52;12.20;;;3.10;;
73100;SDS011;61288;53.446;-2.266;2023-04-25T06:58:18;13.52;;;3.03;;
73100;SDS011;61288;53.446;-2.266;2023-04-25T07:00:44;10.55;;;3.10;;
73100;SDS011;61288;53.446;-2.266;2023-04-25T07:03:10;9.20;;;2.95;;
73100;SDS011;61288;53.446;-2.266;2023-04-25T07:05:36;10.18;;;2.63;;
73100;SDS011;61288;53.446;-2.266;2023-04-25T07:08:02;8.38;;;2.60;;
73100;SDS011;61288;53.446;-2.266;2023-04-25T07:10:28;11.52;;;2.88;;
73100;SDS011;61288;53.446;-2.266;2023-04-25T07:12:53;8.88;;;2.60;;
73100;SDS011;61288;53.446;-2.266;2023-04-25T07:15:19;11.60;;;2.60;;
73100;SDS011;61288;53.446;-2.266;2023-04-25T07:17:44;9.55;;;2.55;;
73100;SDS011;61288;53.446;-2.266;2023-04-25T07:20:10;10.85;;;2.88;;
73100;SDS011;61288;53.446;-2.266;2023-04-25T07:22:36;9.63;;;2.50;;
73100;SDS011;61288;53.446;-2.266;2023-04-25T07:25:01;7.13;;;2.20;;
73100;SDS011;61288;53.446;-2.266;2023-04-25T07:27:27;11.00;;;2.58;;
73100;SDS011;61288;53.446;-2.266;2023-04-25T07:29:54;7.47;;;2.42;;
73100;SDS011;61288;53.446;-2.266;2023-04-25T07:32:20;6.93;;;2.17;;
73100;SDS011;61288;53.446;-2.266;2023-04-25T07:34:45;8.43;;;2.13;;
73100;SDS011;61288;53.446;-2.266;2023-04-25T07:37:10;11.10;;;2.20;;
73100;SDS011;61288;53.446;-2.266;2023-04-25T07:39:36;8.00;;;2.38;;
73100;SDS011;61288;53.446;-2.266;2023-04-25T07:42:03;6.85;;;2.28;;
73100;SDS011;61288;53.446;-2.266;2023-04-25T07:44:29;6.30;;;2.15;;
73100;SDS011;61288;53.446;-2.266;2023-04-25T07:46:55;5.32;;;1.88;;
73100;SDS011;61288;53.446;-2.266;2023-04-25T07:49:21;6.65;;;2.10;;
73100;SDS011;61288;53.446;-2.266;2023-04-25T07:51:46;7.97;;;1.98;;
73100;SDS011;61288;53.446;-2.266;2023-04-25T07:54:13;7.45;;;1.83;;
73100;SDS011;61288;53.446;-2.266;2023-04-25T07:56:39;10.27;;;2.08;;
73100;SDS011;61288;53.446;-2.266;2023-04-25T07:59:05;6.28;;;2.00;;
73100;SDS011;61288;53.446;-2.266;2023-04-25T08:01:30;7.35;;;1.65;;
73100;SDS011;61288;53.446;-2.266;2023-04-25T08:03:56;10.98;;;1.80;;
73100;SDS011;61288;53.446;-2.266;2023-04-25T08:06:22;6.25;;;1.73;;
73100;SDS011;61288;53.446;-2.266;2023-04-25T08:08:48;9.43;;;1.92;;
73100;SDS011;61288;53.446;-2.266;2023-04-25T08:11:13;6.63;;;2.00;;
73100;SDS011;61288;53.446;-2.266;2023-04-25T08:13:40;6.90;;;1.88;;
73100;SDS011;61288;53.446;-2.266;2023-04-25T08:16:06;6.95;;;1.90;;
73100;SDS011;61288;53.446;-2.266;2023-04-25T08:18:33;8.05;;;2.00;;
73100;SDS011;61288;53.446;-2.266;2023-04-25T08:20:58;4.43;;;1.65;;
73100;SDS011;61288;53.446;-2.266;2023-04-25T08:23:25;9.10;;;2.20;;
73100;SDS011;61288;53.446;-2.266;2023-04-25T08:25:51;6.82;;;1.95;;
73100;SDS011;61288;53.446;-2.266;2023-04-25T08:28:17;7.47;;;1.92;;
73100;SDS011;61288;53.446;-2.266;2023-04-25T08:30:43;5.68;;;1.48;;
73100;SDS011;61288;53.446;-2.266;2023-04-25T08:33:09;8.50;;;1.80;;
73100;SDS011;61288;53.446;-2.266;2023-04-25T08:35:36;7.40;;;1.67;;
73100;SDS011;61288;53.446;-2.266;2023-04-25T08:38:01;7.47;;;1.70;;
73100;SDS011;61288;53.446;-2.266;2023-04-25T08:40:27;5.38;;;1.52;;
73100;SDS011;61288;53.446;-2.266;2023-04-25T08:42:56;6.55;;;1.52;;
73100;SDS011;61288;53.446;-2.266;2023-04-25T08:45:22;7.05;;;1.70;;
73100;SDS011;61288;53.446;-2.266;2023-04-25T08:47:48;7.68;;;1.80;;
73100;SDS011;61288;53.446;-2.266;2023-04-25T08:50:17;6.13;;;1.67;;
73100;SDS011;61288;53.446;-2.266;2023-04-25T08:52:45;5.72;;;1.77;;
73100;SDS011;61288;53.446;-2.266;2023-04-25T08:55:13;5.93;;;1.63;;
73100;SDS011;61288;53.446;-2.266;2023-04-25T08:57:39;8.15;;;1.77;;
73100;SDS011;61288;53.446;-2.266;2023-04-25T09:00:08;6.45;;;1.55;;
73100;SDS011;61288;53.446;-2.266;2023-04-25T09:02:38;4.72;;;1.83;;
73100;SDS011;61288;53.446;-2.266;2023-04-25T09:05:05;7.28;;;1.88;;
73100;SDS011;61288;53.446;-2.266;2023-04-25T09:07:32;8.13;;;1.85;;
73100;SDS011;61288;53.446;-2.266;2023-04-25T09:09:58;6.40;;;2.10;;
73100;SDS011;61288;53.446;-2.266;2023-04-25T09:12:28;6.38;;;1.70;;
73100;SDS011;61288;53.446;-2.266;2023-04-25T09:15:28;5.88;;;1.77;;
73100;SDS011;61288;53.446;-2.266;2023-04-25T09:17:54;8.00;;;2.00;;
73100;SDS011;61288;53.446;-2.266;2023-04-25T09:20:24;5.10;;;1.65;;
73100;SDS011;61288;53.446;-2.266;2023-04-25T09:23:00;5.18;;;1.80;;
73100;SDS011;61288;53.446;-2.266;2023-04-25T09:25:27;6.25;;;2.08;;
73100;SDS011;61288;53.446;-2.266;2023-04-25T09:28:03;5.43;;;1.95;;
73100;SDS011;61288;53.446;-2.266;2023-04-25T09:30:30;4.70;;;1.80;;
73100;SDS011;61288;53.446;-2.266;2023-04-25T09:32:57;6.75;;;2.00;;
73100;SDS011;61288;53.446;-2.266;2023-04-25T09:35:30;10.00;;;2.20;;
73100;SDS011;61288;53.446;-2.266;2023-04-25T09:38:13;7.20;;;2.00;;
73100;SDS011;61288;53.446;-2.266;2023-04-25T09:40:43;9.23;;;2.30;;
73100;SDS011;61288;53.446;-2.266;2023-04-25T09:43:19;6.90;;;1.80;;
73100;SDS011;61288;53.446;-2.266;2023-04-25T09:45:46;7.20;;;1.70;;
73100;SDS011;61288;53.446;-2.266;2023-04-25T09:48:18;7.60;;;2.05;;
73100;SDS011;61288;53.446;-2.266;2023-04-25T09:50:45;6.55;;;1.92;;
73100;SDS011;61288;53.446;-2.266;2023-04-25T09:53:31;8.55;;;2.03;;
73100;SDS011;61288;53.446;-2.266;2023-04-25T09:55:59;6.22;;;1.80;;
73100;SDS011;61288;53.446;-2.266;2023-04-25T09:58:25;4.57;;;1.50;;
73100;SDS011;61288;53.446;-2.266;2023-04-25T10:00:55;5.15;;;1.90;;
73100;SDS011;61288;53.446;-2.266;2023-04-25T10:03:31;4.50;;;1.60;;
73100;SDS011;61288;53.446;-2.266;2023-04-25T10:05:58;6.13;;;1.77;;
73100;SDS011;61288;53.446;-2.266;2023-04-25T10:08:27;4.68;;;1.70;;
73100;SDS011;61288;53.446;-2.266;2023-04-25T10:11:02;5.88;;;1.67;;
73100;SDS011;61288;53.446;-2.266;2023-04-25T10:13:32;6.30;;;1.33;;
73100;SDS011;61288;53.446;-2.266;2023-04-25T10:15:58;4.88;;;1.50;;
73100;SDS011;61288;53.446;-2.266;2023-04-25T10:18:26;7.32;;;1.67;;
73100;SDS011;61288;53.446;-2.266;2023-04-25T10:20:54;5.10;;;1.65;;
73100;SDS011;61288;53.446;-2.266;2023-04-25T10:23:20;2.70;;;1.42;;
73100;SDS011;61288;53.446;-2.266;2023-04-25T10:25:47;4.03;;;1.63;;
73100;SDS011;61288;53.446;-2.266;2023-04-25T10:28:14;3.22;;;1.35;;
73100;SDS011;61288;53.446;-2.266;2023-04-25T10:30:56;5.18;;;2.00;;
73100;SDS011;61288;53.446;-2.266;2023-04-25T10:33:37;8.13;;;2.45;;
73100;SDS011;61288;53.446;-2.266;2023-04-25T10:36:14;5.35;;;1.80;;
73100;SDS011;61288;53.446;-2.266;2023-04-25T10:38:43;6.72;;;1.80;;
73100;SDS011;61288;53.446;-2.266;2023-04-25T10:41:10;7.38;;;1.88;;
73100;SDS011;61288;53.446;-2.266;2023-04-25T10:43:37;5.93;;;1.70;;
73100;SDS011;61288;53.446;-2.266;2023-04-25T10:46:15;5.50;;;1.50;;
73100;SDS011;61288;53.446;-2.266;2023-04-25T10:48:48;5.95;;;1.90;;
73100;SDS011;61288;53.446;-2.266;2023-04-25T10:51:16;6.93;;;1.73;;
73100;SDS011;61288;53.446;-2.266;2023-04-25T10:53:42;4.35;;;1.35;;
73100;SDS011;61288;53.446;-2.266;2023-04-25T10:56:19;5.60;;;1.63;;
73100;SDS011;61288;53.446;-2.266;2023-04-25T10:58:46;6.30;;;1.50;;
73100;SDS011;61288;53.446;-2.266;2023-04-25T11:01:14;4.32;;;1.42;;
73100;SDS011;61288;53.446;-2.266;2023-04-25T11:03:44;6.78;;;1.80;;
73100;SDS011;61288;53.446;-2.266;2023-04-25T11:06:29;3.22;;;1.50;;
73100;SDS011;61288;53.446;-2.266;2023-04-25T11:09:02;5.25;;;1.52;;
73100;SDS011;61288;53.446;-2.266;2023-04-25T11:11:36;6.47;;;1.50;;
73100;SDS011;61288;53.446;-2.266;2023-04-25T11:14:01;5.93;;;1.85;;
73100;SDS011;61288;53.446;-2.266;2023-04-25T11:16:27;4.28;;;1.63;;
73100;SDS011;61288;53.446;-2.266;2023-04-25T11:18:52;7.63;;;1.58;;
73100;SDS011;61288;53.446;-2.266;2023-04-25T11:21:18;5.90;;;1.80;;
73100;SDS011;61288;53.446;-2.266;2023-04-25T11:23:44;5.55;;;1.60;;
73100;SDS011;61288;53.446;-2.266;2023-04-25T11:26:11;3.47;;;1.48;;
73100;SDS011;61288;53.446;-2.266;2023-04-25T11:28:38;5.07;;;1.67;;
73100;SDS011;61288;53.446;-2.266;2023-04-25T11:31:04;6.22;;;1.88;;
73100;SDS011;61288;53.446;-2.266;2023-04-25T11:33:30;5.75;;;1.70;;
73100;SDS011;61288;53.446;-2.266;2023-04-25T11:35:55;8.98;;;1.90;;
73100;SDS011;61288;53.446;-2.266;2023-04-25T11:38:22;4.95;;;1.60;;
73100;SDS011;61288;53.446;-2.266;2023-04-25T11:40:50;5.18;;;1.50;;
73100;SDS011;61288;53.446;-2.266;2023-04-25T11:43:17;6.10;;;1.80;;
73100;SDS011;61288;53.446;-2.266;2023-04-25T11:45:48;4.40;;;1.42;;
73100;SDS011;61288;53.446;-2.266;2023-04-25T11:48:15;4.70;;;1.80;;
73100;SDS011;61288;53.446;-2.266;2023-04-25T11:50:42;6.38;;;1.55;;
73100;SDS011;61288;53.446;-2.266;2023-04-25T11:53:08;4.93;;;1.65;;
73100;SDS011;61288;53.446;-2.266;2023-04-25T11:55:35;6.72;;;1.88;;
73100;SDS011;61288;53.446;-2.266;2023-04-25T11:58:01;5.05;;;1.80;;
73100;SDS011;61288;53.446;-2.266;2023-04-25T12:00:28;5.03;;;1.70;;
73100;SDS011;61288;53.446;-2.266;2023-04-25T12:02:54;6.10;;;1.85;;
73100;SDS011;61288;53.446;-2.266;2023-04-25T12:05:26;6.30;;;1.92;;
73100;SDS011;61288;53.446;-2.266;2023-04-25T12:07:55;5.90;;;1.65;;
73100;SDS011;61288;53.446;-2.266;2023-04-25T12:10:21;6.43;;;2.20;;
73100;SDS011;61288;53.446;-2.266;2023-04-25T12:12:50;7.63;;;1.83;;
73100;SDS011;61288;53.446;-2.266;2023-04-25T12:15:22;5.75;;;1.95;;
73100;SDS011;61288;53.446;-2.266;2023-04-25T12:17:50;4.28;;;1.70;;
73100;SDS011;61288;53.446;-2.266;2023-04-25T12:20:18;5.63;;;1.73;;
73100;SDS011;61288;53.446;-2.266;2023-04-25T12:22:49;9.90;;;1.95;;
73100;SDS011;61288;53.446;-2.266;2023-04-25T12:28:17;3.97;;;1.80;;
73100;SDS011;61288;53.446;-2.266;2023-04-25T12:31:10;6.13;;;2.00;;
73100;SDS011;61288;53.446;-2.266;2023-04-25T12:33:36;4.95;;;2.00;;
73100;SDS011;61288;53.446;-2.266;2023-04-25T12:36:02;7.38;;;1.83;;
73100;SDS011;61288;53.446;-2.266;2023-04-25T12:38:35;5.32;;;1.98;;
73100;SDS011;61288;53.446;-2.266;2023-04-25T12:41:04;6.15;;;1.90;;
73100;SDS011;61288;53.446;-2.266;2023-04-25T12:43:30;7.60;;;2.13;;
73100;SDS011;61288;53.446;-2.266;2023-04-25T12:45:55;7.43;;;2.05;;
73100;SDS011;61288;53.446;-2.266;2023-04-25T12:48:22;5.93;;;1.98;;
73100;SDS011;61288;53.446;-2.266;2023-04-25T12:50:49;6.88;;;2.15;;
73100;SDS011;61288;53.446;-2.266;2023-04-25T12:53:19;6.43;;;1.90;;
73100;SDS011;61288;53.446;-2.266;2023-04-25T12:55:46;6.55;;;2.05;;
73100;SDS011;61288;53.446;-2.266;2023-04-25T12:58:12;9.38;;;2.15;;
73100;SDS011;61288;53.446;-2.266;2023-04-25T13:00:41;4.75;;;1.83;;
73100;SDS011;61288;53.446;-2.266;2023-04-25T13:03:07;7.10;;;2.13;;
73100;SDS011;61288;53.446;-2.266;2023-04-25T13:05:36;4.45;;;1.95;;
73100;SDS011;61288;53.446;-2.266;2023-04-25T13:08:02;7.07;;;2.10;;
73100;SDS011;61288;53.446;-2.266;2023-04-25T13:10:29;8.20;;;1.92;;
73100;SDS011;61288;53.446;-2.266;2023-04-25T13:12:56;6.28;;;1.90;;
73100;SDS011;61288;53.446;-2.266;2023-04-25T13:15:22;6.13;;;2.22;;
73100;SDS011;61288;53.446;-2.266;2023-04-25T13:17:48;5.13;;;1.88;;
73100;SDS011;61288;53.446;-2.266;2023-04-25T13:20:13;4.95;;;1.80;;
73100;SDS011;61288;53.446;-2.266;2023-04-25T13:22:40;7.75;;;2.35;;
73100;SDS011;61288;53.446;-2.266;2023-04-25T13:25:07;10.02;;;2.75;;
73100;SDS011;61288;53.446;-2.266;2023-04-25T13:27:33;6.38;;;2.10;;
73100;SDS011;61288;53.446;-2.266;2023-04-25T13:30:01;6.55;;;1.98;;
73100;SDS011;61288;53.446;-2.266;2023-04-25T13:32:35;8.90;;;2.40;;
73100;SDS011;61288;53.446;-2.266;2023-04-25T13:35:12;7.57;;;2.28;;
73100;SDS011;61288;53.446;-2.266;2023-04-25T13:37:39;8.88;;;2.30;;
73100;SDS011;61288;53.446;-2.266;2023-04-25T13:40:06;6.80;;;2.25;;
73100;SDS011;61288;53.446;-2.266;2023-04-25T13:42:34;11.10;;;2.42;;
73100;SDS011;61288;53.446;-2.266;2023-04-25T13:45:00;7.75;;;2.22;;
73100;SDS011;61288;53.446;-2.266;2023-04-25T13:47:26;6.13;;;2.47;;
73100;SDS011;61288;53.446;-2.266;2023-04-25T13:49:53;7.28;;;2.65;;
73100;SDS011;61288;53.446;-2.266;2023-04-25T13:52:20;8.75;;;2.58;;
73100;SDS011;61288;53.446;-2.266;2023-04-25T13:54:45;7.10;;;2.15;;
73100;SDS011;61288;53.446;-2.266;2023-04-25T13:57:12;7.85;;;1.92;;
73100;SDS011;61288;53.446;-2.266;2023-04-25T13:59:39;7.25;;;2.30;;
73100;SDS011;61288;53.446;-2.266;2023-04-25T14:02:09;9.20;;;2.70;;
73100;SDS011;61288;53.446;-2.266;2023-04-25T14:04:36;6.53;;;2.67;;
73100;SDS011;61288;53.446;-2.266;2023-04-25T14:07:02;10.30;;;2.65;;
73100;SDS011;61288;53.446;-2.266;2023-04-25T14:09:28;9.02;;;2.75;;
73100;SDS011;61288;53.446;-2.266;2023-04-25T14:11:54;6.43;;;2.30;;
73100;SDS011;61288;53.446;-2.266;2023-04-25T14:14:20;7.07;;;2.20;;
73100;SDS011;61288;53.446;-2.266;2023-04-25T14:16:46;9.15;;;2.40;;
73100;SDS011;61288;53.446;-2.266;2023-04-25T14:19:17;6.65;;;2.20;;
73100;SDS011;61288;53.446;-2.266;2023-04-25T14:21:43;10.88;;;2.50;;
73100;SDS011;61288;53.446;-2.266;2023-04-25T14:24:09;7.95;;;2.60;;
73100;SDS011;61288;53.446;-2.266;2023-04-25T14:26:36;8.52;;;2.50;;
73100;SDS011;61288;53.446;-2.266;2023-04-25T14:29:05;7.43;;;2.60;;
73100;SDS011;61288;53.446;-2.266;2023-04-25T14:31:32;7.78;;;2.40;;
73100;SDS011;61288;53.446;-2.266;2023-04-25T14:33:59;7.65;;;2.20;;